DAAS

Ain Arnat Airport

Airport
ICAO code
DAAS
IATA Code
QSF
Summary
ICAO Region
AFI
ICAO Territory
Location

, Setif

Serving
Setif
Elevation
3360 ft
Coordinates
36° 10' 41" N , 5° 19' 28" E
Metar
DAAS 271000Z 27012KT 9999 FEW010 FEW023TCU SCT026 07/02 Q1007

Airport map

Aerial View

SKYbrary Partners:

Safety knowledge contributed by: